Portada
METAR-TAF:

METAR-TAF

Aeropuertos :

Gibraltar, Gibraltar

Aeropuerto de Gibraltar

latitud: 36-09N, longitud: 005-21W, altitud: 5 m

Observación

El informe se hizo hace 37 minutos, a las 08:50 UTC
Viento 7 kt del este-sureste
Temperatura 16°C
Humedad 88%
Presión 1017 hPa
Visibilidad 10 km o más
Escasas nubes a una altura de 1000 ft
Nubes dispersas a una altura de 10000 ft
Cielo nuboso a una altura de 25000 ft

METAR: LXGB 240850Z 11007KT 9999 FEW010 SCT100 BKN250 16/14 Q1017 NOSIG

Hora: 11:27 (09:27 UTC)

Pronóstico

El informe se hizo hace 1 hora y 46 minutos, a las 07:41 UTC
Pronóstico válido del 24 a las 09 UTC al 24 a las 18 UTC
Viento 9 kt del este
Visibilidad 10 km o más
Escasas nubes a una altura de 1000 ft

TAF: LXGB 240741Z 2409/2418 09009KT 9999 FEW010

Observaciones y pronósticos meteorológicos de más de 4000 aeropuertos (mensajes METAR y TAF).

Los puntos amarillos y rojos representan las estaciones disponibles.

Ponga el ratón en el punto deseado para ver el nombre de la estación.

Haga clic para ver las observaciones y los pronósticos meteorológicos.

Para cambiar el mapa : haga clic en los botones verdes con una cruz de color negro para hacer un zoom, en el botón verde con un guión para alejar o en las flechas verdes para mapas adyacentes.


METAR-TAF: